Blanc-Sablon, Canada
Current Conditions -  °F | °C
As of 12:00 AM on Wednesday 26 Nov 2014 (Local Time) from CYBX Reporting Station
Broken Clouds Broken Clouds  
Wind Chill: 26°   Ceiling: 800
Heat Index: 37°   Visibility: 15mi
Dew Point: 34°   Wind: 25mph
Humidity: 87%   Direction: 230°SW
Pressure: 29.35"   Gusts: 36mph
Location:  51.43°N, 57.12°W
Report Text: CYBX 260300Z 23022G31KT 15SM BKN008 03/01 A2935 RMK SC6 SLP940
Loading
Personal Weather Stations






























Interactive Weather Map New forecast layout! Learn more

10-Day Weather Forecast

Advertisements
Track Severe Weather on mobile